Time;durP1;ratioP1;P1;durP2;ratioP2;P2;SDS_P1;SDS_P2;PMS_P1;PMS_P2;Temp;Humidity;BMP_temperature;BMP_pressure;BME280_temperature;BME280_humidity;BME280_pressure;Samples;Min_cycle;Max_cycle;Signal;HPM_P1;HPM_P2
2021/08/07 00:00:03;;;;;;;2.43;2.20;;;;;;;22.88;100.00;96797.81;5029226;28;20279;-67
2021/08/07 00:02:30;;;;;;;2.57;2.10;;;;;;;22.79;100.00;96785.75;5029882;28;20496;-66
2021/08/07 00:04:57;;;;;;;2.30;2.10;;;;;;;22.86;100.00;96805.50;5028433;28;20206;-66
2021/08/07 00:07:26;;;;;;;1.80;1.70;;;;;;;22.87;100.00;96804.66;5030183;28;20233;-67
2021/08/07 00:09:53;;;;;;;2.00;1.80;;;;;;;22.80;100.00;96799.44;5029442;28;20253;-65
2021/08/07 00:12:23;;;;;;;3.33;2.00;;;;;;;22.88;100.00;96811.50;5026999;28;20197;-66
2021/08/07 00:14:49;;;;;;;2.13;1.80;;;;;;;22.87;100.00;96812.34;5029885;28;20230;-67
2021/08/07 00:17:16;;;;;;;2.43;2.00;;;;;;;22.88;100.00;96816.63;5028168;28;20276;-66
2021/08/07 00:19:43;;;;;;;2.47;2.17;;;;;;;22.79;100.00;96797.69;5029279;28;20249;-66
2021/08/07 00:22:09;;;;;;;4.83;2.73;;;;;;;22.88;100.00;96818.31;5027674;28;20309;-64
2021/08/07 00:24:36;;;;;;;2.33;2.03;;;;;;;22.89;100.00;96812.38;5026457;28;20312;-65
2021/08/07 00:27:03;;;;;;;2.40;2.00;;;;;;;22.87;100.00;96807.22;5027169;28;20237;-64
2021/08/07 00:29:35;;;;;;;2.80;2.00;;;;;;;22.84;100.00;96793.50;5029006;28;20678;-67
2021/08/07 00:32:02;;;;;;;2.90;2.00;;;;;;;22.80;100.00;96784.91;5023405;28;20614;-66
2021/08/07 00:34:29;;;;;;;2.13;1.90;;;;;;;22.81;100.00;96780.66;5027503;28;20284;-67
2021/08/07 00:36:55;;;;;;;3.33;2.13;;;;;;;22.90;100.00;96798.72;5021288;28;20221;-66
2021/08/07 00:39:22;;;;;;;2.93;2.40;;;;;;;22.64;100.00;96753.97;5027309;28;20263;-66
2021/08/07 00:41:48;;;;;;;2.23;1.97;;;;;;;22.91;100.00;96797.84;5028198;28;20225;-66
2021/08/07 00:44:15;;;;;;;3.27;2.37;;;;;;;21.96;100.00;96621.66;5028933;28;20625;-66
2021/08/07 00:46:42;;;;;;;4.20;2.20;;;;;;;22.85;100.00;96761.91;5027709;28;20202;-66
2021/08/07 00:49:08;;;;;;;2.50;1.90;;;;;;;22.52;100.00;96700.91;5027189;28;20308;-67
2021/08/07 00:51:35;;;;;;;3.93;2.20;;;;;;;22.82;100.00;96754.19;5026310;28;20632;-66
2021/08/07 00:54:01;;;;;;;2.17;1.97;;;;;;;22.90;100.00;96767.97;5027324;28;20229;-66
2021/08/07 00:56:28;;;;;;;2.27;2.07;;;;;;;22.91;100.00;96769.66;5028678;28;20237;-67
2021/08/07 00:58:54;;;;;;;2.40;2.20;;;;;;;22.88;100.00;96765.38;5026089;28;20782;-66
2021/08/07 01:01:21;;;;;;;1.93;1.73;;;;;;;22.82;100.00;96756.75;5024669;28;20288;-66
2021/08/07 01:03:54;;;;;;;2.67;2.20;;;;;;;22.80;100.00;96755.91;5026443;28;20210;-67
2021/08/07 01:06:24;;;;;;;3.70;1.90;;;;;;;22.87;100.00;96775.63;5025741;28;20642;-66
2021/08/07 01:09:31;;;;;;;2.13;1.80;;;;;;;22.85;100.00;96774.72;5028276;28;20252;-66
2021/08/07 01:12:03;;;;;;;2.53;2.10;;;;;;;22.67;100.00;96738.63;5026990;28;20710;-67
2021/08/07 01:14:42;;;;;;;1.83;1.73;;;;;;;22.66;100.00;96742.03;5010528;28;20202;-67
2021/08/07 01:17:13;;;;;;;2.43;2.10;;;;;;;22.78;100.00;96753.31;5016512;28;20312;-66
2021/08/07 01:20:10;;;;;;;2.00;1.80;;;;;;;22.76;100.00;96755.00;5019227;28;20213;-66
2021/08/07 01:22:54;;;;;;;3.50;2.00;;;;;;;22.76;100.00;96754.13;5026275;28;20245;-66
2021/08/07 01:25:21;;;;;;;2.40;2.10;;;;;;;22.75;100.00;96758.41;5028016;28;20260;-66
2021/08/07 01:27:48;;;;;;;2.97;1.93;;;;;;;22.52;100.00;96706.03;5027009;28;20256;-67
2021/08/07 01:30:17;;;;;;;2.23;2.03;;;;;;;22.74;100.00;96741.28;5016996;28;20256;-66
2021/08/07 01:32:44;;;;;;;2.33;2.00;;;;;;;22.75;100.00;96748.16;5026819;28;20247;-66
2021/08/07 01:35:10;;;;;;;1.97;1.77;;;;;;;22.75;100.00;96745.59;5012765;28;20244;-66
2021/08/07 01:37:37;;;;;;;2.13;1.90;;;;;;;22.77;100.00;96748.19;5030829;28;20237;-66
2021/08/07 01:40:04;;;;;;;1.97;1.63;;;;;;;22.77;100.00;96753.28;5011988;28;20266;-66
2021/08/07 01:42:30;;;;;;;1.60;1.50;;;;;;;22.77;100.00;96756.69;5032773;28;20218;-66
2021/08/07 01:44:57;;;;;;;2.63;2.20;;;;;;;22.78;100.00;96748.19;5027874;28;20229;-66
2021/08/07 01:47:49;;;;;;;2.10;1.90;;;;;;;22.79;100.00;96736.22;5028211;28;20237;-66
2021/08/07 01:50:23;;;;;;;2.10;1.90;;;;;;;22.64;100.00;96705.31;5026243;28;20206;-66
2021/08/07 01:52:52;;;;;;;2.47;1.97;;;;;;;22.78;100.00;96732.81;5021503;28;20694;-67
2021/08/07 01:55:24;;;;;;;1.80;1.70;;;;;;;22.69;100.00;96713.91;5010326;28;20233;-67
2021/08/07 01:58:10;;;;;;;2.37;1.87;;;;;;;22.61;100.00;96710.38;5027145;28;20251;-63
2021/08/07 02:00:39;;;;;;;2.00;1.80;;;;;;;22.79;100.00;96746.47;5023521;28;20691;-63
2021/08/07 02:03:08;;;;;;;2.60;2.00;;;;;;;22.65;100.00;96730.09;5026814;28;20248;-66
2021/08/07 02:05:35;;;;;;;2.13;1.93;;;;;;;22.79;100.00;96743.91;5026286;28;20198;-67
2021/08/07 02:08:02;;;;;;;1.90;1.70;;;;;;;22.80;100.00;96750.78;5027590;28;20241;-63
2021/08/07 02:10:28;;;;;;;2.00;1.80;;;;;;;22.79;100.00;96742.22;5030334;28;20205;-66
2021/08/07 02:12:55;;;;;;;2.33;1.93;;;;;;;22.79;100.00;96739.66;5022894;28;20232;-66
2021/08/07 02:15:22;;;;;;;2.50;2.00;;;;;;;22.80;100.00;96740.53;5030222;28;20202;-66
2021/08/07 02:17:49;;;;;;;2.03;1.80;;;;;;;22.56;100.00;96699.25;5030284;28;20292;-66
2021/08/07 02:20:16;;;;;;;2.00;1.80;;;;;;;22.80;100.00;96743.09;5028772;28;20189;-65
2021/08/07 02:22:44;;;;;;;2.20;2.00;;;;;;;22.79;100.00;96737.09;5029543;28;20252;-66
2021/08/07 02:25:12;;;;;;;2.20;1.90;;;;;;;22.80;100.00;96733.69;5031001;28;20687;-67
2021/08/07 02:27:39;;;;;;;1.80;1.70;;;;;;;22.79;100.00;96741.34;5030710;28;20240;-66
2021/08/07 02:30:06;;;;;;;2.40;1.90;;;;;;;22.80;100.00;96743.09;5028722;28;20635;-67
2021/08/07 02:32:34;;;;;;;2.10;1.90;;;;;;;22.66;100.00;96708.75;5031593;28;20232;-66
2021/08/07 02:35:01;;;;;;;3.00;1.73;;;;;;;22.71;100.00;96719.91;5008893;28;20202;-66
2021/08/07 02:37:27;;;;;;;2.43;2.00;;;;;;;22.71;100.00;96719.91;5011275;28;20271;-67
2021/08/07 02:39:54;;;;;;;1.73;1.63;;;;;;;22.79;100.00;96731.09;5114520;22;20677;-62
2021/08/07 02:42:20;;;;;;;2.07;1.70;;;;;;;22.79;100.00;96726.84;5010586;28;20256;-61
2021/08/07 02:44:47;;;;;;;2.43;2.00;;;;;;;22.79;100.00;96721.72;4994355;28;20676;-62
2021/08/07 02:47:14;;;;;;;2.03;1.77;;;;;;;22.79;100.00;96724.28;5010836;28;20230;-61
2021/08/07 02:49:40;;;;;;;2.17;1.97;;;;;;;22.78;100.00;96708.91;5003135;28;20250;-61
2021/08/07 02:52:07;;;;;;;1.90;1.77;;;;;;;22.74;100.00;96704.59;5012607;28;20230;-61
2021/08/07 02:54:33;;;;;;;2.17;1.97;;;;;;;22.78;100.00;96712.31;5011153;28;20198;-61
2021/08/07 02:57:00;;;;;;;3.10;1.93;;;;;;;22.77;100.00;96712.31;4993816;28;20294;-62
2021/08/07 02:59:27;;;;;;;2.00;1.80;;;;;;;22.70;100.00;96711.38;5010841;28;20218;-61
2021/08/07 03:01:53;;;;;;;2.20;1.80;;;;;;;22.71;100.00;96702.84;5009902;28;20288;-61
2021/08/07 03:04:20;;;;;;;2.07;1.83;;;;;;;22.67;100.00;96708.78;5008508;28;20876;-61
2021/08/07 03:06:47;;;;;;;2.10;1.90;;;;;;;22.67;100.00;96713.91;5011335;28;20206;-61
2021/08/07 03:09:13;;;;;;;2.17;1.97;;;;;;;22.66;100.00;96704.50;5011832;28;20272;-60
2021/08/07 03:11:40;;;;;;;1.90;1.80;;;;;;;22.67;100.00;96705.34;5012633;28;20233;-61
2021/08/07 03:14:07;;;;;;;2.00;1.73;;;;;;;22.67;100.00;96707.91;5007985;28;20641;-61
2021/08/07 03:16:33;;;;;;;2.60;1.77;;;;;;;22.68;100.00;96718.16;5012557;28;20268;-62
2021/08/07 03:19:00;;;;;;;2.00;1.63;;;;;;;22.65;100.00;96709.59;5009866;28;20230;-61
2021/08/07 03:21:26;;;;;;;2.20;2.00;;;;;;;22.64;100.00;96708.72;5011162;28;20252;-61
2021/08/07 03:23:53;;;;;;;1.93;1.73;;;;;;;22.68;100.00;96732.69;4999787;28;20218;-61
2021/08/07 03:26:20;;;;;;;1.73;1.63;;;;;;;22.71;100.00;96733.56;5010474;28;20202;-61
2021/08/07 03:28:46;;;;;;;2.37;2.17;;;;;;;22.71;100.00;96738.69;5011562;28;20242;-60
2021/08/07 03:31:13;;;;;;;1.70;1.60;;;;;;;22.72;100.00;96739.56;5010163;28;20412;-61
2021/08/07 03:33:40;;;;;;;1.80;1.70;;;;;;;22.72;100.00;96722.50;5010093;28;20664;-61
2021/08/07 03:36:06;;;;;;;1.80;1.70;;;;;;;22.72;100.00;96730.19;5011253;28;20293;-61
2021/08/07 03:38:33;;;;;;;2.33;2.10;;;;;;;22.72;100.00;96737.88;5011396;28;20294;-61
2021/08/07 03:40:59;;;;;;;2.07;1.87;;;;;;;22.73;100.00;96734.47;5006833;28;20478;-61
2021/08/07 03:43:26;;;;;;;2.23;1.67;;;;;;;22.73;100.00;96725.91;5011640;28;20695;-62
2021/08/07 03:45:52;;;;;;;1.73;1.63;;;;;;;22.73;100.00;96723.34;5010649;28;20293;-61
2021/08/07 03:48:19;;;;;;;2.00;1.80;;;;;;;22.74;100.00;96723.34;5009412;28;20202;-61
2021/08/07 03:50:45;;;;;;;2.33;2.03;;;;;;;22.75;100.00;96721.66;5010156;28;20229;-61
2021/08/07 03:53:12;;;;;;;2.57;2.07;;;;;;;22.74;100.00;96710.56;5011071;28;20194;-61
2021/08/07 03:55:39;;;;;;;1.93;1.73;;;;;;;22.74;100.00;96705.44;5011353;28;20225;-60
2021/08/07 03:58:05;;;;;;;2.10;1.70;;;;;;;22.74;100.00;96702.88;5009588;28;20671;-61
2021/08/07 04:00:33;;;;;;;1.70;1.60;;;;;;;22.69;100.00;96688.28;5010817;28;20237;-62
2021/08/07 04:03:00;;;;;;;2.73;2.07;;;;;;;22.70;100.00;96693.44;5006994;28;20233;-62
2021/08/07 04:05:27;;;;;;;1.90;1.60;;;;;;;22.74;100.00;96717.41;5009906;28;20314;-61
2021/08/07 04:08:08;;;;;;;1.60;1.50;;;;;;;22.73;100.00;96705.41;5011350;28;20245;-61
2021/08/07 04:10:35;;;;;;;2.10;1.90;;;;;;;22.74;100.00;96707.16;5010553;28;20268;-61
2021/08/07 04:13:02;;;;;;;1.90;1.73;;;;;;;22.74;100.00;96710.56;5010597;28;20221;-61
2021/08/07 04:15:28;;;;;;;1.77;1.67;;;;;;;22.72;100.00;96699.44;5010303;28;20237;-61
2021/08/07 04:17:55;;;;;;;2.03;1.80;;;;;;;22.74;100.00;96700.31;5011277;28;20206;-61
2021/08/07 04:20:21;;;;;;;1.70;1.60;;;;;;;22.75;100.00;96706.31;5009290;28;20245;-62
2021/08/07 04:22:48;;;;;;;1.70;1.60;;;;;;;22.70;100.00;96716.50;5010757;28;20246;-60
2021/08/07 04:25:15;;;;;;;2.00;1.50;;;;;;;22.75;100.00;96734.47;5011653;28;20261;-59
2021/08/07 04:27:41;;;;;;;1.70;1.60;;;;;;;22.72;100.00;96742.13;5010206;28;20199;-60
2021/08/07 04:30:08;;;;;;;3.90;1.73;;;;;;;22.75;100.00;96735.34;5010105;28;20231;-61
2021/08/07 04:32:35;;;;;;;2.60;1.70;;;;;;;22.56;100.00;96709.50;5010112;28;20221;-60
2021/08/07 04:35:02;;;;;;;2.37;1.70;;;;;;;22.73;100.00;96741.28;5007780;28;20202;-61
2021/08/07 04:37:29;;;;;;;2.97;1.67;;;;;;;22.71;100.00;96741.25;5010265;28;20206;-61
2021/08/07 04:39:55;;;;;;;1.57;1.47;;;;;;;22.70;100.00;96721.63;5010359;28;20225;-61
2021/08/07 04:42:22;;;;;;;1.70;1.60;;;;;;;22.67;100.00;96708.78;5009715;28;20583;-61
2021/08/07 04:44:49;;;;;;;3.03;1.70;;;;;;;22.63;100.00;96698.47;5010123;28;20230;-63
2021/08/07 04:47:15;;;;;;;2.37;1.77;;;;;;;22.64;100.00;96715.53;5010275;28;20230;-60
2021/08/07 04:49:42;;;;;;;2.00;1.70;;;;;;;22.64;100.00;96723.22;5009691;28;20610;-62
2021/08/07 04:52:08;;;;;;;1.80;1.50;;;;;;;22.64;100.00;96728.34;5009876;28;20218;-61
2021/08/07 04:54:35;;;;;;;2.97;1.50;;;;;;;22.63;100.00;96719.84;5010267;28;20288;-61
2021/08/07 04:57:02;;;;;;;1.80;1.70;;;;;;;22.65;100.00;96713.00;5011130;28;20237;-61
2021/08/07 04:59:28;;;;;;;1.83;1.63;;;;;;;22.65;100.00;96705.31;5009373;28;20253;-61
2021/08/07 05:01:55;;;;;;;1.83;1.73;;;;;;;22.66;100.00;96706.19;5010293;28;20285;-62
2021/08/07 05:04:22;;;;;;;1.80;1.70;;;;;;;22.67;100.00;96695.09;5009606;28;20230;-61
2021/08/07 05:06:48;;;;;;;1.70;1.60;;;;;;;22.68;100.00;96701.97;5009786;28;20225;-61
2021/08/07 05:09:15;;;;;;;2.43;2.13;;;;;;;22.69;100.00;96701.09;5006668;28;20254;-61
2021/08/07 05:11:42;;;;;;;1.50;1.40;;;;;;;22.68;100.00;96690.00;5005795;28;20199;-61
2021/08/07 05:14:08;;;;;;;1.80;1.70;;;;;;;22.70;100.00;96690.00;5005886;28;20226;-61
2021/08/07 05:16:35;;;;;;;1.77;1.60;;;;;;;22.70;100.00;96692.56;5007143;28;20229;-62
2021/08/07 05:19:01;;;;;;;2.10;1.90;;;;;;;22.70;100.00;96688.31;5005744;28;20638;-61
2021/08/07 05:21:28;;;;;;;1.77;1.53;;;;;;;22.70;100.00;96690.88;5006458;28;20233;-60
2021/08/07 05:23:54;;;;;;;1.70;1.60;;;;;;;22.71;100.00;96694.31;5006263;28;20253;-60
2021/08/07 05:26:21;;;;;;;1.70;1.60;;;;;;;22.70;100.00;96703.69;5008660;28;20305;-61
2021/08/07 05:28:48;;;;;;;1.90;1.80;;;;;;;22.65;100.00;96691.69;5005569;28;20238;-62
2021/08/07 05:31:14;;;;;;;1.80;1.70;;;;;;;22.68;100.00;96690.00;5006330;28;20294;-61
2021/08/07 05:33:41;;;;;;;1.60;1.50;;;;;;;22.71;100.00;96692.59;5005531;28;21463;-63
2021/08/07 05:36:08;;;;;;;1.70;1.60;;;;;;;22.72;100.00;96688.34;5007202;28;20210;-61
2021/08/07 05:38:34;;;;;;;1.60;1.50;;;;;;;22.72;100.00;96680.66;5006965;28;20244;-62
2021/08/07 05:41:01;;;;;;;1.70;1.60;;;;;;;22.72;100.00;96675.53;5007699;28;20202;-62
2021/08/07 05:43:28;;;;;;;1.73;1.63;;;;;;;22.68;100.00;96682.31;5008513;28;20307;-61
2021/08/07 05:45:54;;;;;;;1.60;1.50;;;;;;;22.72;100.00;96690.91;5011843;28;20230;-61
2021/08/07 05:48:21;;;;;;;1.93;1.80;;;;;;;22.72;100.00;96696.03;5011479;28;20492;-62
2021/08/07 05:50:48;;;;;;;1.50;1.40;;;;;;;22.68;100.00;96697.66;5010805;28;20243;-61
2021/08/07 05:53:14;;;;;;;2.63;1.80;;;;;;;22.73;100.00;96710.53;4990648;28;20237;-61
2021/08/07 05:55:41;;;;;;;1.93;1.63;;;;;;;22.67;100.00;96711.34;5011029;28;20297;-60
2021/08/07 05:58:08;;;;;;;1.90;1.53;;;;;;;22.72;100.00;96693.47;5010114;28;20691;-61
2021/08/07 06:00:34;;;;;;;1.60;1.50;;;;;;;22.72;100.00;96680.66;5009129;28;20241;-61
2021/08/07 06:03:01;;;;;;;1.60;1.50;;;;;;;22.57;100.00;96645.50;5011232;28;20210;-62
2021/08/07 06:05:28;;;;;;;2.00;1.70;;;;;;;22.73;100.00;96654.19;5009824;28;20206;-61
2021/08/07 06:07:54;;;;;;;2.03;1.70;;;;;;;22.68;100.00;96650.72;5010414;28;20222;-62
2021/08/07 06:10:21;;;;;;;2.30;1.60;;;;;;;22.66;100.00;96654.97;5009613;28;20245;-61
2021/08/07 06:12:48;;;;;;;1.50;1.33;;;;;;;22.73;100.00;96675.53;5010322;28;20655;-61
2021/08/07 06:15:14;;;;;;;1.50;1.40;;;;;;;22.70;100.00;96684.88;5010574;28;20444;-61
2021/08/07 06:17:41;;;;;;;2.03;1.83;;;;;;;22.67;100.00;96678.03;5010836;28;20296;-61
2021/08/07 06:20:08;;;;;;;1.70;1.60;;;;;;;22.69;100.00;96684.03;5010055;28;20701;-61
2021/08/07 06:22:35;;;;;;;1.77;1.67;;;;;;;22.58;100.00;96675.38;5009216;28;20237;-62
2021/08/07 06:25:02;;;;;;;2.77;1.60;;;;;;;22.63;100.00;96676.28;5006977;28;20233;-61
2021/08/07 06:27:29;;;;;;;1.60;1.50;;;;;;;22.58;100.00;96670.25;5010911;28;20259;-61
2021/08/07 06:29:55;;;;;;;1.63;1.53;;;;;;;22.61;100.00;96672.84;5009581;28;20226;-62
2021/08/07 06:32:22;;;;;;;1.50;1.40;;;;;;;22.56;100.00;96661.69;5008875;28;20238;-61
2021/08/07 06:34:49;;;;;;;2.30;1.73;;;;;;;22.61;100.00;96677.97;5009812;28;20300;-61
2021/08/07 06:37:15;;;;;;;1.50;1.40;;;;;;;22.61;100.00;96674.53;5007103;28;20301;-61
2021/08/07 06:39:42;;;;;;;2.03;1.70;;;;;;;22.62;100.00;96682.22;5009456;28;20230;-62
2021/08/07 06:42:08;;;;;;;1.50;1.40;;;;;;;22.63;100.00;96677.97;5010531;28;20265;-61
2021/08/07 06:44:35;;;;;;;1.70;1.60;;;;;;;22.56;100.00;96666.78;5009829;28;20288;-61
2021/08/07 06:47:01;;;;;;;1.80;1.70;;;;;;;22.65;100.00;96676.31;5010232;28;20572;-62
2021/08/07 06:49:29;;;;;;;2.00;1.80;;;;;;;22.65;100.00;96678.88;5009997;28;20226;-61
2021/08/07 06:51:55;;;;;;;1.70;1.60;;;;;;;22.65;100.00;96687.38;5009564;28;20292;-61
2021/08/07 06:54:22;;;;;;;1.87;1.77;;;;;;;22.65;100.00;96678.88;5009333;28;20202;-61
2021/08/07 06:56:49;;;;;;;1.33;1.23;;;;;;;22.68;100.00;96691.72;5009531;28;20233;-61
2021/08/07 06:59:16;;;;;;;1.60;1.50;;;;;;;22.62;100.00;96684.78;5009953;28;20303;-61
2021/08/07 07:01:44;;;;;;;1.60;1.50;;;;;;;22.67;100.00;96690.84;5008207;28;20229;-60
2021/08/07 07:04:11;;;;;;;1.90;1.60;;;;;;;22.69;100.00;96688.28;5009901;28;20230;-61
2021/08/07 07:06:37;;;;;;;1.50;1.40;;;;;;;22.69;100.00;96690.84;5009487;28;20233;-61
2021/08/07 07:09:04;;;;;;;2.03;1.80;;;;;;;22.70;100.00;96683.19;5009148;28;20253;-62
2021/08/07 07:11:31;;;;;;;1.90;1.70;;;;;;;22.69;100.00;96680.63;5009435;28;20210;-61
2021/08/07 07:13:57;;;;;;;1.93;1.50;;;;;;;22.70;100.00;96683.19;5008724;28;20221;-61
2021/08/07 07:16:24;;;;;;;1.57;1.47;;;;;;;22.14;100.00;96571.53;5009325;28;20483;-61
2021/08/07 07:18:50;;;;;;;1.67;1.57;;;;;;;22.67;100.00;96646.44;5008722;28;20222;-62
2021/08/07 07:21:17;;;;;;;1.60;1.50;;;;;;;22.70;100.00;96647.34;5009625;28;20298;-61
2021/08/07 07:23:44;;;;;;;1.43;1.33;;;;;;;22.65;100.00;96635.34;5009186;28;20699;-62
2021/08/07 07:26:10;;;;;;;1.60;1.50;;;;;;;22.70;100.00;96654.16;5010020;28;20695;-61
2021/08/07 07:28:37;;;;;;;1.43;1.33;;;;;;;22.70;100.00;96662.69;5007308;28;20202;-62
2021/08/07 07:31:03;;;;;;;1.60;1.50;;;;;;;22.71;100.00;96668.69;5008957;28;20230;-61
2021/08/07 07:33:30;;;;;;;1.57;1.47;;;;;;;22.52;100.00;96649.69;5008790;28;20304;-61
2021/08/07 07:35:57;;;;;;;2.60;1.47;;;;;;;22.70;100.00;96672.06;5007156;28;20214;-61
2021/08/07 07:38:25;;;;;;;1.60;1.50;;;;;;;22.71;100.00;96666.13;5008750;28;20264;-62
2021/08/07 07:40:54;;;;;;;1.80;1.70;;;;;;;22.64;100.00;96641.28;5008816;28;20264;-61
2021/08/07 07:43:21;;;;;;;1.77;1.30;;;;;;;22.70;100.00;96646.47;5007334;28;20743;-61
2021/08/07 07:45:48;;;;;;;2.67;1.67;;;;;;;22.66;100.00;96631.91;5008765;28;20707;-61
2021/08/07 07:48:14;;;;;;;1.60;1.50;;;;;;;22.64;100.00;96629.34;5008853;28;20660;-62
2021/08/07 07:50:41;;;;;;;1.60;1.50;;;;;;;22.67;100.00;96631.06;5008887;28;20647;-61
2021/08/07 07:53:07;;;;;;;3.37;1.67;;;;;;;22.71;100.00;96646.47;5008562;28;20211;-61
2021/08/07 07:55:34;;;;;;;1.80;1.60;;;;;;;22.71;100.00;96650.78;5008745;28;20198;-61
2021/08/07 07:58:01;;;;;;;1.83;1.73;;;;;;;22.70;100.00;96647.34;5007921;28;20241;-62
2021/08/07 08:00:27;;;;;;;1.60;1.50;;;;;;;22.69;100.00;96645.63;5008119;28;20225;-62
2021/08/07 08:02:54;;;;;;;1.60;1.50;;;;;;;22.67;100.00;96647.31;5007133;28;20298;-61
2021/08/07 08:05:21;;;;;;;1.70;1.60;;;;;;;22.65;100.00;96650.69;5007981;28;20284;-62
2021/08/07 08:07:47;;;;;;;1.50;1.40;;;;;;;22.63;100.00;96657.50;5007807;28;20206;-61
2021/08/07 08:10:15;;;;;;;3.70;1.77;;;;;;;22.47;100.00;96627.41;5007458;28;20226;-61
2021/08/07 08:12:43;;;;;;;1.40;1.30;;;;;;;22.59;100.00;96648.91;5007952;28;20276;-61
2021/08/07 08:15:11;;;;;;;1.37;1.23;;;;;;;22.61;100.00;96646.38;5007847;28;20233;-61
2021/08/07 08:17:37;;;;;;;2.83;1.73;;;;;;;22.61;100.00;96648.94;5003755;28;20635;-62
2021/08/07 08:20:05;;;;;;;1.80;1.70;;;;;;;22.61;100.00;96636.13;5007938;28;20261;-62
2021/08/07 08:22:32;;;;;;;1.90;1.47;;;;;;;22.60;100.00;96630.16;5007671;28;20318;-59
2021/08/07 08:24:58;;;;;;;1.40;1.30;;;;;;;22.60;100.00;96616.50;4990532;28;20294;-62
2021/08/07 08:27:25;;;;;;;1.53;1.43;;;;;;;22.63;100.00;96616.53;5008159;28;20226;-62
2021/08/07 08:29:51;;;;;;;1.53;1.43;;;;;;;22.60;100.00;96609.69;5009359;28;20748;-61
2021/08/07 08:32:18;;;;;;;1.43;1.30;;;;;;;22.62;100.00;96614.81;5008156;28;20248;-61
2021/08/07 08:34:45;;;;;;;1.50;1.40;;;;;;;22.63;100.00;96607.16;5006282;28;20225;-61
2021/08/07 08:37:11;;;;;;;1.60;1.40;;;;;;;22.64;100.00;96608.84;5005897;28;20292;-63
2021/08/07 08:39:38;;;;;;;1.70;1.60;;;;;;;22.65;100.00;96595.19;5008583;28;20230;-60
2021/08/07 08:42:05;;;;;;;1.40;1.30;;;;;;;22.65;100.00;96599.47;5008020;28;20242;-61
2021/08/07 08:44:35;;;;;;;1.53;1.43;;;;;;;22.66;100.00;96593.50;5006193;28;20260;-61
2021/08/07 08:47:02;;;;;;;1.60;1.50;;;;;;;22.67;100.00;96596.09;5001838;28;20242;-62
2021/08/07 08:49:29;;;;;;;1.73;1.60;;;;;;;22.68;100.00;96591.81;5005813;28;20312;-61
2021/08/07 08:51:57;;;;;;;1.47;1.37;;;;;;;22.65;100.00;96587.50;5007750;28;20680;-61
2021/08/07 08:54:24;;;;;;;2.17;1.50;;;;;;;22.63;100.00;96585.78;4996448;28;20234;-61
2021/08/07 08:56:50;;;;;;;1.60;1.50;;;;;;;22.69;100.00;96606.34;5006696;28;20229;-61
2021/08/07 08:59:21;;;;;;;1.53;1.43;;;;;;;22.50;100.00;96579.66;5005743;28;20222;-60
2021/08/07 09:01:48;;;;;;;1.40;1.30;;;;;;;22.69;100.00;96619.16;4990425;28;20236;-60
2021/08/07 09:04:15;;;;;;;1.67;1.57;;;;;;;22.67;100.00;96621.69;5006099;28;20226;-61
2021/08/07 09:06:41;;;;;;;1.40;1.30;;;;;;;22.67;100.00;96628.50;5008056;28;20237;-62
2021/08/07 09:09:09;;;;;;;1.57;1.47;;;;;;;22.42;100.00;96588.09;5007808;28;20261;-61
2021/08/07 09:11:50;;;;;;;1.47;1.37;;;;;;;22.69;100.00;96625.13;5004595;28;20630;-62
2021/08/07 09:14:27;;;;;;;1.50;1.40;;;;;;;22.69;100.00;96608.91;5007726;28;20198;-61
2021/08/07 09:16:57;;;;;;;1.70;1.60;;;;;;;22.69;100.00;96596.09;5007321;28;20210;-62
2021/08/07 09:19:39;;;;;;;1.60;1.50;;;;;;;22.68;100.00;96590.09;5006580;28;20254;-62
2021/08/07 09:22:12;;;;;;;2.70;1.30;;;;;;;22.12;100.00;96498.19;5003728;28;20395;-62
2021/08/07 09:24:57;;;;;;;1.97;1.63;;;;;;;22.70;100.00;96595.25;5003358;28;20228;-63
2021/08/07 09:27:41;;;;;;;1.50;1.40;;;;;;;22.69;100.00;96593.53;5007258;28;20642;-61
2021/08/07 09:30:16;;;;;;;1.60;1.50;;;;;;;22.68;100.00;96600.34;5006844;28;20321;-61
2021/08/07 09:33:10;;;;;;;1.57;1.47;;;;;;;22.69;100.00;96598.66;5005309;28;20631;-62
2021/08/07 09:35:41;;;;;;;1.60;1.50;;;;;;;22.68;100.00;96592.66;5004025;28;20708;-61
2021/08/07 09:38:11;;;;;;;1.57;1.47;;;;;;;22.68;100.00;96579.84;5007141;28;20234;-61
2021/08/07 09:40:53;;;;;;;1.40;1.30;;;;;;;22.64;100.00;96569.56;5004484;28;20343;-61
2021/08/07 09:43:45;;;;;;;1.47;1.37;;;;;;;22.51;100.00;96542.13;5005653;28;20260;-61
2021/08/07 09:46:15;;;;;;;2.57;1.53;;;;;;;22.64;100.00;96579.81;5005816;28;20233;-62
2021/08/07 09:48:43;;;;;;;1.40;1.30;;;;;;;22.06;100.00;96475.09;5006727;28;20221;-61
2021/08/07 09:51:17;;;;;;;1.50;1.40;;;;;;;22.61;100.00;96574.66;5005643;28;20275;-62
2021/08/07 09:53:44;;;;;;;1.53;1.43;;;;;;;22.60;100.00;96576.38;5005001;28;20321;-61
2021/08/07 09:56:10;;;;;;;1.40;1.30;;;;;;;22.59;100.00;96566.97;5005862;28;20305;-61
2021/08/07 09:58:37;;;;;;;1.60;1.50;;;;;;;22.58;100.00;96565.25;5006430;28;20639;-61
2021/08/07 10:01:04;;;;;;;1.53;1.43;;;;;;;22.58;100.00;96560.13;5006876;28;20241;-60
2021/08/07 10:03:35;;;;;;;1.60;1.50;;;;;;;22.58;100.00;96562.69;5007746;28;20249;-61
2021/08/07 10:06:21;;;;;;;2.50;1.30;;;;;;;22.60;100.00;96555.03;5001153;28;20230;-61
2021/08/07 10:08:49;;;;;;;1.60;1.50;;;;;;;22.60;100.00;96555.03;5005945;28;20273;-61
2021/08/07 10:11:17;;;;;;;1.50;1.40;;;;;;;22.60;100.00;96550.78;5006612;28;20304;-62
2021/08/07 10:13:44;;;;;;;1.37;1.27;;;;;;;22.61;100.00;96555.03;5006295;28;20295;-61
2021/08/07 10:16:12;;;;;;;2.60;1.27;;;;;;;22.57;100.00;96557.56;5006646;28;20297;-63
2021/08/07 10:18:40;;;;;;;1.50;1.40;;;;;;;22.62;100.00;96553.34;5005611;28;20234;-62
2021/08/07 10:21:07;;;;;;;1.30;1.20;;;;;;;22.60;100.00;96548.22;4986228;28;20303;-62
2021/08/07 10:23:34;;;;;;;1.30;1.20;;;;;;;22.63;100.00;96547.38;4988747;28;20239;-62
2021/08/07 10:26:02;;;;;;;1.40;1.30;;;;;;;22.62;100.00;96548.22;5006065;28;20222;-61
2021/08/07 10:28:31;;;;;;;1.57;1.47;;;;;;;22.65;100.00;96545.69;5007894;28;20316;-62
2021/08/07 10:30:59;;;;;;;1.50;1.40;;;;;;;22.64;100.00;96542.25;5008496;28;20329;-62
2021/08/07 10:33:25;;;;;;;3.63;1.47;;;;;;;22.58;100.00;96531.09;5009829;28;20668;-61
2021/08/07 10:35:55;;;;;;;1.30;1.20;;;;;;;22.62;100.00;96538.81;5009888;28;20236;-62
2021/08/07 10:38:22;;;;;;;1.40;1.30;;;;;;;22.65;100.00;96550.81;5009789;28;20237;-61
2021/08/07 10:40:48;;;;;;;1.30;1.20;;;;;;;22.66;100.00;96547.41;5009983;28;20252;-61
2021/08/07 10:43:17;;;;;;;1.37;1.27;;;;;;;22.53;100.00;96514.84;5009894;28;20663;-60
2021/08/07 10:45:44;;;;;;;2.00;1.30;;;;;;;22.66;100.00;96535.47;5008193;28;20218;-61
2021/08/07 10:48:44;;;;;;;1.67;1.50;;;;;;;22.66;100.00;96532.91;5010472;28;20207;-63
2021/08/07 10:51:19;;;;;;;1.50;1.40;;;;;;;22.65;100.00;96528.59;4986092;28;20728;-60
2021/08/07 10:53:46;;;;;;;1.37;1.27;;;;;;;22.66;100.00;96532.03;5007950;28;20626;-61
2021/08/07 10:56:31;;;;;;;1.30;1.20;;;;;;;22.65;100.00;96531.16;5008160;28;20297;-61
2021/08/07 10:58:59;;;;;;;1.53;1.40;;;;;;;22.63;100.00;96516.63;5009636;28;20369;-61
2021/08/07 11:01:29;;;;;;;1.47;1.37;;;;;;;22.61;100.00;96506.38;5009358;28;20256;-61
2021/08/07 11:04:02;;;;;;;2.40;1.40;;;;;;;22.65;100.00;96508.13;5008004;28;20293;-61
2021/08/07 11:06:37;;;;;;;1.40;1.30;;;;;;;22.67;100.00;96508.13;5008764;28;20237;-62
2021/08/07 11:09:16;;;;;;;2.70;1.47;;;;;;;22.67;100.00;96506.44;5004604;28;20287;-61
2021/08/07 11:11:43;;;;;;;1.47;1.37;;;;;;;22.67;100.00;96503.88;5007067;28;20198;-61
2021/08/07 11:14:21;;;;;;;1.30;1.20;;;;;;;22.68;100.00;96505.59;5009343;28;20674;-61
2021/08/07 11:17:06;;;;;;;1.30;1.20;;;;;;;22.67;100.00;96500.44;5007747;28;20611;-63
2021/08/07 11:19:54;;;;;;;1.70;1.60;;;;;;;22.67;100.00;96505.56;5009110;28;20253;-61
2021/08/07 11:22:35;;;;;;;1.63;1.50;;;;;;;22.69;100.00;96511.56;5007958;28;20222;-62
2021/08/07 11:25:14;;;;;;;1.40;1.30;;;;;;;22.62;100.00;96505.53;5004756;28;20276;-62
2021/08/07 11:27:55;;;;;;;1.20;1.13;;;;;;;22.67;100.00;96505.56;5006787;28;20213;-61
2021/08/07 11:30:25;;;;;;;1.30;1.20;;;;;;;22.67;100.00;96506.44;5010125;28;20272;-61